Time,TemperatureF,DewpointF,PressureIn,WindDirection,WindDirectionDegrees,WindSpeedMPH,WindSpeedGustMPH,Humidity,HourlyPrecipIn,Conditions,Clouds,dailyrainin,SoftwareType,DateUTC
2013-04-22 00:08:00,64.8,31.0,29.91,West,261,5.0,-999.0,28,-99.99,,,0.00,weatherlink.com 1.10,2013-04-22 07:08:00,
2013-04-22 00:23:00,64.7,29.0,29.89,WSW,254,2.0,-999.0,26,-99.99,,,0.00,weatherlink.com 1.10,2013-04-22 07:23:00,
2013-04-22 00:38:00,64.7,27.0,29.90,WSW,244,6.0,-999.0,24,-99.99,,,0.00,weatherlink.com 1.10,2013-04-22 07:38:00,
2013-04-22 00:53:00,64.7,25.0,29.90,WSW,254,6.0,-999.0,22,-99.99,,,0.00,weatherlink.com 1.10,2013-04-22 07:53:00,
2013-04-22 01:08:00,64.5,24.0,29.89,West,259,8.0,-999.0,21,-99.99,,,0.00,weatherlink.com 1.10,2013-04-22 08:08:00,
2013-04-22 01:23:00,64.2,23.0,29.87,WSW,240,4.0,-999.0,21,-99.99,,,0.00,weatherlink.com 1.10,2013-04-22 08:23:00,
2013-04-22 01:38:00,63.5,23.0,29.88,WSW,257,6.0,-999.0,21,-99.99,,,0.00,weatherlink.com 1.10,2013-04-22 08:38:00,
2013-04-22 01:53:00,63.5,23.0,29.87,WSW,246,8.0,-999.0,21,-99.99,,,0.00,weatherlink.com 1.10,2013-04-22 08:53:00,
2013-04-22 02:09:00,64.3,22.0,29.86,WSW,250,9.0,-999.0,20,-99.99,,,0.00,weatherlink.com 1.10,2013-04-22 09:09:00,
2013-04-22 02:24:00,64.2,22.0,29.86,West,262,11.0,-999.0,20,-99.99,,,0.00,weatherlink.com 1.10,2013-04-22 09:24:00,
2013-04-22 02:39:00,63.4,22.0,29.86,WSW,251,4.0,-999.0,20,-99.99,,,0.00,weatherlink.com 1.10,2013-04-22 09:39:00,
2013-04-22 02:54:00,62.9,22.0,29.85,West,273,5.0,-999.0,21,-99.99,,,0.00,weatherlink.com 1.10,2013-04-22 09:54:00,
2013-04-22 03:09:00,63.4,23.0,29.84,West,265,11.0,-999.0,21,-99.99,,,0.00,weatherlink.com 1.10,2013-04-22 10:09:00,
2013-04-22 03:24:00,63.9,23.0,29.85,West,259,5.0,-999.0,21,-99.99,,,0.00,weatherlink.com 1.10,2013-04-22 10:24:00,
2013-04-22 03:39:00,63.1,23.0,29.84,WSW,251,4.0,-999.0,22,-99.99,,,0.00,weatherlink.com 1.10,2013-04-22 10:39:00,
2013-04-22 03:54:00,62.4,24.0,29.85,WSW,253,0.0,-999.0,23,-99.99,,,0.00,weatherlink.com 1.10,2013-04-22 10:54:00,
2013-04-22 04:09:00,61.3,22.0,29.85,WSW,253,0.0,-999.0,22,-99.99,,,0.00,weatherlink.com 1.10,2013-04-22 11:09:00,
2013-04-22 04:24:00,59.6,23.0,29.85,WSW,253,0.0,-999.0,24,-99.99,,,0.00,weatherlink.com 1.10,2013-04-22 11:24:00,
2013-04-22 04:39:00,59.2,24.0,29.84,SW,231,0.0,-999.0,26,-99.99,,,0.00,weatherlink.com 1.10,2013-04-22 11:39:00,
2013-04-22 04:55:00,59.8,26.0,29.84,SW,231,0.0,-999.0,27,-99.99,,,0.00,weatherlink.com 1.10,2013-04-22 11:55:00,
2013-04-22 05:10:00,59.6,25.0,29.84,SW,231,3.0,-999.0,27,-99.99,,,0.00,weatherlink.com 1.10,2013-04-22 12:10:00,
2013-04-22 05:25:00,59.3,26.0,29.84,ESE,105,0.0,-999.0,28,-99.99,,,0.00,weatherlink.com 1.10,2013-04-22 12:25:00,
2013-04-22 05:40:00,58.4,25.0,29.84,ESE,107,0.0,-999.0,28,-99.99,,,0.00,weatherlink.com 1.10,2013-04-22 12:40:00,
2013-04-22 05:55:00,57.6,25.0,29.84,ESE,107,0.0,-999.0,28,-99.99,,,0.00,weatherlink.com 1.10,2013-04-22 12:55:00,
2013-04-22 06:10:00,57.2,24.0,29.85,SE,142,0.0,-999.0,28,-99.99,,,0.00,weatherlink.com 1.10,2013-04-22 13:10:00,
2013-04-22 06:25:00,55.9,23.0,29.87,NNE,25,0.0,-999.0,28,-99.99,,,0.00,weatherlink.com 1.10,2013-04-22 13:25:00,
2013-04-22 06:40:00,54.5,23.0,29.88,NNE,25,0.0,-999.0,30,-99.99,,,0.00,weatherlink.com 1.10,2013-04-22 13:40:00,
2013-04-22 06:55:00,55.1,24.0,29.88,NNE,26,0.0,-999.0,30,-99.99,,,0.00,weatherlink.com 1.10,2013-04-22 13:55:00,
2013-04-22 07:10:00,57.0,25.0,29.88,NNE,27,0.0,-999.0,29,-99.99,,,0.00,weatherlink.com 1.10,2013-04-22 14:10:00,
2013-04-22 07:25:00,58.9,25.0,29.89,SE,132,0.0,-999.0,27,-99.99,,,0.00,weatherlink.com 1.10,2013-04-22 14:25:00,
2013-04-22 07:41:00,61.0,26.0,29.89,ENE,69,3.0,-999.0,26,-99.99,,,0.00,weatherlink.com 1.10,2013-04-22 14:41:00,
2013-04-22 07:56:00,63.2,28.0,29.88,ESE,107,1.0,-999.0,26,-99.99,,,0.00,weatherlink.com 1.10,2013-04-22 14:56:00,
2013-04-22 08:11:00,66.3,29.0,29.88,SE,132,5.0,-999.0,25,-99.99,,,0.00,weatherlink.com 1.10,2013-04-22 15:11:00,
2013-04-22 08:26:00,68.9,31.0,29.88,SE,144,1.0,-999.0,24,-99.99,,,0.00,weatherlink.com 1.10,2013-04-22 15:26:00,
2013-04-22 08:41:00,71.1,27.0,29.87,SE,129,3.0,-999.0,19,-99.99,,,0.00,weatherlink.com 1.10,2013-04-22 15:41:00,
2013-04-22 08:56:00,72.7,27.0,29.87,South,182,7.0,-999.0,18,-99.99,,,0.00,weatherlink.com 1.10,2013-04-22 15:56:00,
2013-04-22 09:11:00,74.4,27.0,29.87,South,184,2.0,-999.0,17,-99.99,,,0.00,weatherlink.com 1.10,2013-04-22 16:11:00,
2013-04-22 09:26:00,75.6,26.0,29.88,South,188,1.0,-999.0,16,-99.99,,,0.00,weatherlink.com 1.10,2013-04-22 16:26:00,
2013-04-22 09:41:00,76.5,27.0,29.87,South,173,2.0,-999.0,16,-99.99,,,0.00,weatherlink.com 1.10,2013-04-22 16:41:00,
2013-04-22 09:57:00,78.5,25.0,29.87,South,180,6.0,-999.0,14,-99.99,,,0.00,weatherlink.com 1.10,2013-04-22 16:57:00,
2013-04-22 10:12:00,80.3,27.0,29.87,SSW,200,1.0,-999.0,14,-99.99,,,0.00,weatherlink.com 1.10,2013-04-22 17:12:00,
2013-04-22 10:27:00,81.1,28.0,29.87,SSE,159,6.0,-999.0,14,-99.99,,,0.00,weatherlink.com 1.10,2013-04-22 17:27:00,
2013-04-22 10:42:00,82.0,26.0,29.86,SW,231,1.0,-999.0,13,-99.99,,,0.00,weatherlink.com 1.10,2013-04-22 17:42:00,
2013-04-22 10:57:00,83.4,26.0,29.86,West,281,7.0,-999.0,12,-99.99,,,0.00,weatherlink.com 1.10,2013-04-22 17:57:00,
2013-04-22 11:12:00,84.3,26.0,29.85,NW,321,9.0,-999.0,12,-99.99,,,0.00,weatherlink.com 1.10,2013-04-22 18:12:00,
2013-04-22 11:27:00,85.7,25.0,29.85,NW,311,7.0,-999.0,11,-99.99,,,0.00,weatherlink.com 1.10,2013-04-22 18:27:00,
2013-04-22 11:42:00,86.5,26.0,29.84,NW,312,8.0,-999.0,11,-99.99,,,0.00,weatherlink.com 1.10,2013-04-22 18:42:00,
2013-04-22 11:57:00,86.5,24.0,29.83,WSW,256,2.0,-999.0,10,-99.99,,,0.00,weatherlink.com 1.10,2013-04-22 18:57:00,
2013-04-22 12:12:00,87.0,22.0,29.82,WNW,286,0.0,-999.0,9,-99.99,,,0.00,weatherlink.com 1.10,2013-04-22 19:12:00,
2013-04-22 12:27:00,88.6,23.0,29.81,WSW,257,9.0,-999.0,9,-99.99,,,0.00,weatherlink.com 1.10,2013-04-22 19:27:00,
2013-04-22 12:43:00,87.6,22.0,29.80,WNW,287,5.0,-999.0,9,-99.99,,,0.00,weatherlink.com 1.10,2013-04-22 19:43:00,
2013-04-22 12:58:00,88.8,26.0,29.79,SW,228,2.0,-999.0,10,-99.99,,,0.00,weatherlink.com 1.10,2013-04-22 19:58:00,
2013-04-22 13:13:00,88.6,25.0,29.78,South,178,5.0,-999.0,10,-99.99,,,0.00,weatherlink.com 1.10,2013-04-22 20:13:00,
2013-04-22 13:28:00,88.2,25.0,29.78,West,273,13.0,-999.0,10,-99.99,,,0.00,weatherlink.com 1.10,2013-04-22 20:28:00,
2013-04-22 13:43:00,88.8,26.0,29.77,SSW,210,9.0,-999.0,10,-99.99,,,0.00,weatherlink.com 1.10,2013-04-22 20:43:00,
2013-04-22 13:58:00,87.0,24.0,29.77,SSE,167,11.0,-999.0,10,-99.99,,,0.00,weatherlink.com 1.10,2013-04-22 20:58:00,
2013-04-22 14:13:00,87.6,25.0,29.77,South,181,20.0,-999.0,10,-99.99,,,0.00,weatherlink.com 1.10,2013-04-22 21:13:00,
2013-04-22 14:28:00,88.2,25.0,29.76,SW,221,11.0,-999.0,10,-99.99,,,0.00,weatherlink.com 1.10,2013-04-22 21:28:00,
2013-04-22 14:43:00,88.0,25.0,29.76,South,172,18.0,-999.0,10,-99.99,,,0.00,weatherlink.com 1.10,2013-04-22 21:43:00,
2013-04-22 14:58:00,90.1,27.0,29.75,WSW,251,1.0,-999.0,10,-99.99,,,0.00,weatherlink.com 1.10,2013-04-22 21:58:00,
2013-04-22 15:13:00,90.3,24.0,29.75,WSW,238,10.0,-999.0,9,-99.99,,,0.00,weatherlink.com 1.10,2013-04-22 22:13:00,
2013-04-22 15:28:00,89.9,24.0,29.74,WSW,238,24.0,-999.0,9,-99.99,,,0.00,weatherlink.com 1.10,2013-04-22 22:28:00,
2013-04-22 15:44:00,89.7,18.0,29.73,SW,229,15.0,-999.0,7,-99.99,,,0.00,weatherlink.com 1.10,2013-04-22 22:44:00,
2013-04-22 15:59:00,89.3,17.0,29.73,SSW,209,12.0,-999.0,7,-99.99,,,0.00,weatherlink.com 1.10,2013-04-22 22:59:00,
2013-04-22 16:14:00,88.6,17.0,29.73,SSW,209,16.0,-999.0,7,-99.99,,,0.00,weatherlink.com 1.10,2013-04-22 23:14:00,
2013-04-22 16:29:00,88.2,17.0,29.74,WSW,258,13.0,-999.0,7,-99.99,,,0.00,weatherlink.com 1.10,2013-04-22 23:29:00,
2013-04-22 16:44:00,87.6,16.0,29.73,WSW,242,13.0,-999.0,7,-99.99,,,0.00,weatherlink.com 1.10,2013-04-22 23:44:00,
2013-04-22 16:59:00,87.0,16.0,29.74,WSW,238,7.0,-999.0,7,-99.99,,,0.00,weatherlink.com 1.10,2013-04-22 23:59:00,
2013-04-22 17:14:00,85.9,21.0,29.74,SW,224,12.0,-999.0,9,-99.99,,,0.00,weatherlink.com 1.10,2013-04-23 00:14:00,
2013-04-22 17:29:00,85.3,20.0,29.74,WSW,239,7.0,-999.0,9,-99.99,,,0.00,weatherlink.com 1.10,2013-04-23 00:29:00,
2013-04-22 17:44:00,84.5,20.0,29.75,South,186,13.0,-999.0,9,-99.99,,,0.00,weatherlink.com 1.10,2013-04-23 00:44:00,
2013-04-22 17:59:00,83.0,21.0,29.75,SSW,209,9.0,-999.0,10,-99.99,,,0.00,weatherlink.com 1.10,2013-04-23 00:59:00,
2013-04-22 18:14:00,82.0,22.0,29.75,SSW,213,11.0,-999.0,11,-99.99,,,0.00,weatherlink.com 1.10,2013-04-23 01:14:00,
2013-04-22 18:29:00,80.5,23.0,29.77,WSW,243,7.0,-999.0,12,-99.99,,,0.00,weatherlink.com 1.10,2013-04-23 01:29:00,
2013-04-22 18:45:00,79.4,24.0,29.77,WSW,241,18.0,-999.0,13,-99.99,,,0.00,weatherlink.com 1.10,2013-04-23 01:45:00,
2013-04-22 19:00:00,78.1,23.0,29.78,SW,217,6.0,-999.0,13,-99.99,,,0.00,weatherlink.com 1.10,2013-04-23 02:00:00,
2013-04-22 19:15:00,76.8,26.0,29.76,West,262,11.0,-999.0,15,-99.99,,,0.00,weatherlink.com 1.10,2013-04-23 02:15:00,
2013-04-22 19:30:00,75.8,28.0,29.77,WSW,249,10.0,-999.0,17,-99.99,,,0.00,weatherlink.com 1.10,2013-04-23 02:30:00,
2013-04-22 19:45:00,74.6,27.0,29.77,WSW,248,16.0,-999.0,17,-99.99,,,0.00,weatherlink.com 1.10,2013-04-23 02:45:00,
2013-04-22 20:00:00,74.0,25.0,29.77,WSW,244,10.0,-999.0,16,-99.99,,,0.00,weatherlink.com 1.10,2013-04-23 03:00:00,
2013-04-22 20:15:00,73.3,23.0,29.77,SW,219,5.0,-999.0,15,-99.99,,,0.00,weatherlink.com 1.10,2013-04-23 03:15:00,
2013-04-22 20:30:00,72.5,22.0,29.77,South,187,11.0,-999.0,15,-99.99,,,0.00,weatherlink.com 1.10,2013-04-23 03:30:00,
2013-04-22 20:45:00,69.9,34.0,29.78,South,189,10.0,-999.0,27,-99.99,,,0.00,weatherlink.com 1.10,2013-04-23 03:45:00,
2013-04-22 21:00:00,68.9,31.0,29.78,SW,215,7.0,-999.0,24,-99.99,,,0.00,weatherlink.com 1.10,2013-04-23 04:00:00,
2013-04-22 21:15:00,69.1,22.0,29.77,SSW,198,0.0,-999.0,17,-99.99,,,0.00,weatherlink.com 1.10,2013-04-23 04:15:00,
2013-04-22 21:30:00,68.9,29.0,29.77,SSW,206,2.0,-999.0,23,-99.99,,,0.00,weatherlink.com 1.10,2013-04-23 04:30:00,
2013-04-22 21:45:00,68.3,28.0,29.78,SSW,207,0.0,-999.0,22,-99.99,,,0.00,weatherlink.com 1.10,2013-04-23 04:45:00,
2013-04-22 22:01:00,67.8,24.0,29.77,SW,225,3.0,-999.0,19,-99.99,,,0.00,weatherlink.com 1.10,2013-04-23 05:01:00,
2013-04-22 22:16:00,69.9,27.0,29.75,WSW,254,2.0,-999.0,20,-99.99,,,0.00,weatherlink.com 1.10,2013-04-23 05:16:00,
2013-04-22 22:31:00,70.6,28.0,29.75,SW,232,5.0,-999.0,20,-99.99,,,0.00,weatherlink.com 1.10,2013-04-23 05:31:00,
2013-04-22 22:46:00,70.9,29.0,29.74,SW,227,13.0,-999.0,21,-99.99,,,0.00,weatherlink.com 1.10,2013-04-23 05:46:00,
2013-04-22 23:01:00,70.1,28.0,29.74,SW,224,2.0,-999.0,21,-99.99,,,0.00,weatherlink.com 1.10,2013-04-23 06:01:00,
2013-04-22 23:16:00,67.9,28.0,29.74,WSW,247,5.0,-999.0,22,-99.99,,,0.00,weatherlink.com 1.10,2013-04-23 06:16:00,
2013-04-22 23:31:00,68.3,29.0,29.74,SW,235,1.0,-999.0,23,-99.99,,,0.00,weatherlink.com 1.10,2013-04-23 06:31:00,
2013-04-22 23:46:00,69.1,31.0,29.74,West,264,2.0,-999.0,24,-99.99,,,0.00,weatherlink.com 1.10,2013-04-23 06:46:00,